sensor_id;sensor_type;location;lat;lon;timestamp;temperature;humidity
41547;DHT22;27271;45.412;10.852;2022-07-05T00:00:48;19.10;99.90
41547;DHT22;27271;45.412;10.852;2022-07-05T00:04:18;18.90;99.90
41547;DHT22;27271;45.412;10.852;2022-07-05T00:07:57;18.80;99.90
41547;DHT22;27271;45.412;10.852;2022-07-05T00:11:46;18.90;99.90
41547;DHT22;27271;45.412;10.852;2022-07-05T00:15:15;18.80;99.90
41547;DHT22;27271;45.412;10.852;2022-07-05T00:18:42;18.80;99.90
41547;DHT22;27271;45.412;10.852;2022-07-05T00:22:08;18.80;99.90
41547;DHT22;27271;45.412;10.852;2022-07-05T00:25:34;18.80;99.90
41547;DHT22;27271;45.412;10.852;2022-07-05T00:28:57;18.50;99.90
41547;DHT22;27271;45.412;10.852;2022-07-05T00:32:21;18.50;99.90
41547;DHT22;27271;45.412;10.852;2022-07-05T00:35:45;18.40;99.90
41547;DHT22;27271;45.412;10.852;2022-07-05T00:39:09;18.40;99.90
41547;DHT22;27271;45.412;10.852;2022-07-05T00:42:32;18.30;99.90
41547;DHT22;27271;45.412;10.852;2022-07-05T00:46:02;18.40;99.90
41547;DHT22;27271;45.412;10.852;2022-07-05T00:49:33;18.30;99.90
41547;DHT22;27271;45.412;10.852;2022-07-05T00:53:00;18.30;99.90
41547;DHT22;27271;45.412;10.852;2022-07-05T00:56:25;18.20;99.90
41547;DHT22;27271;45.412;10.852;2022-07-05T00:59:52;18.20;99.90
41547;DHT22;27271;45.412;10.852;2022-07-05T01:03:25;18.30;99.90
41547;DHT22;27271;45.412;10.852;2022-07-05T01:06:51;18.30;99.90
41547;DHT22;27271;45.412;10.852;2022-07-05T01:10:17;18.30;99.90
41547;DHT22;27271;45.412;10.852;2022-07-05T01:13:44;18.30;99.90
41547;DHT22;27271;45.412;10.852;2022-07-05T01:17:11;18.30;99.90
41547;DHT22;27271;45.412;10.852;2022-07-05T01:20:56;18.30;99.90
41547;DHT22;27271;45.412;10.852;2022-07-05T01:24:20;18.40;99.90
41547;DHT22;27271;45.412;10.852;2022-07-05T01:27:48;18.30;99.90
41547;DHT22;27271;45.412;10.852;2022-07-05T01:31:16;18.20;99.90
41547;DHT22;27271;45.412;10.852;2022-07-05T01:34:47;18.30;99.90
41547;DHT22;27271;45.412;10.852;2022-07-05T01:38:14;18.40;99.90
41547;DHT22;27271;45.412;10.852;2022-07-05T01:41:41;18.40;99.90
41547;DHT22;27271;45.412;10.852;2022-07-05T01:45:05;18.50;99.90
41547;DHT22;27271;45.412;10.852;2022-07-05T01:48:35;18.40;99.90
41547;DHT22;27271;45.412;10.852;2022-07-05T01:52:21;18.40;99.90
41547;DHT22;27271;45.412;10.852;2022-07-05T01:55:47;18.40;99.90
41547;DHT22;27271;45.412;10.852;2022-07-05T01:59:15;18.40;99.90
41547;DHT22;27271;45.412;10.852;2022-07-05T02:02:41;18.40;99.90
41547;DHT22;27271;45.412;10.852;2022-07-05T02:06:10;18.40;99.90
41547;DHT22;27271;45.412;10.852;2022-07-05T02:09:35;18.40;99.90
41547;DHT22;27271;45.412;10.852;2022-07-05T02:13:03;18.40;99.90
41547;DHT22;27271;45.412;10.852;2022-07-05T02:16:32;18.50;99.90
41547;DHT22;27271;45.412;10.852;2022-07-05T02:19:58;18.60;99.90
41547;DHT22;27271;45.412;10.852;2022-07-05T02:23:32;18.70;99.90
41547;DHT22;27271;45.412;10.852;2022-07-05T02:26:58;18.70;99.90
41547;DHT22;27271;45.412;10.852;2022-07-05T02:30:33;18.80;99.90
41547;DHT22;27271;45.412;10.852;2022-07-05T02:34:00;18.80;99.90
41547;DHT22;27271;45.412;10.852;2022-07-05T02:37:27;18.90;99.90
41547;DHT22;27271;45.412;10.852;2022-07-05T02:40:55;19.00;99.90
41547;DHT22;27271;45.412;10.852;2022-07-05T02:44:29;19.00;99.90
41547;DHT22;27271;45.412;10.852;2022-07-05T02:48:07;18.80;99.90
41547;DHT22;27271;45.412;10.852;2022-07-05T02:51:34;18.70;99.90
41547;DHT22;27271;45.412;10.852;2022-07-05T02:55:03;18.70;99.90
41547;DHT22;27271;45.412;10.852;2022-07-05T02:58:31;18.70;99.90
41547;DHT22;27271;45.412;10.852;2022-07-05T03:02:02;19.00;99.90
41547;DHT22;27271;45.412;10.852;2022-07-05T03:05:39;19.20;99.90
41547;DHT22;27271;45.412;10.852;2022-07-05T03:09:15;19.40;99.90
41547;DHT22;27271;45.412;10.852;2022-07-05T03:12:49;19.60;99.90
41547;DHT22;27271;45.412;10.852;2022-07-05T03:16:18;19.70;99.90
41547;DHT22;27271;45.412;10.852;2022-07-05T03:19:48;19.80;99.90
41547;DHT22;27271;45.412;10.852;2022-07-05T03:23:24;19.80;99.90
41547;DHT22;27271;45.412;10.852;2022-07-05T03:26:52;19.80;99.90
41547;DHT22;27271;45.412;10.852;2022-07-05T03:30:27;19.90;99.90
41547;DHT22;27271;45.412;10.852;2022-07-05T03:33:54;19.90;99.90
41547;DHT22;27271;45.412;10.852;2022-07-05T03:37:30;19.80;99.90
41547;DHT22;27271;45.412;10.852;2022-07-05T03:40:58;19.80;99.90
41547;DHT22;27271;45.412;10.852;2022-07-05T03:44:39;19.90;99.90
41547;DHT22;27271;45.412;10.852;2022-07-05T03:48:05;20.10;99.90
41547;DHT22;27271;45.412;10.852;2022-07-05T03:51:55;20.20;99.90
41547;DHT22;27271;45.412;10.852;2022-07-05T03:55:21;20.20;99.90
41547;DHT22;27271;45.412;10.852;2022-07-05T03:58:58;20.20;99.90
41547;DHT22;27271;45.412;10.852;2022-07-05T04:02:25;20.20;99.90
41547;DHT22;27271;45.412;10.852;2022-07-05T04:05:52;20.20;99.90
41547;DHT22;27271;45.412;10.852;2022-07-05T04:09:27;20.20;99.90
41547;DHT22;27271;45.412;10.852;2022-07-05T04:12:55;20.20;99.90
41547;DHT22;27271;45.412;10.852;2022-07-05T04:16:25;20.50;99.90
41547;DHT22;27271;45.412;10.852;2022-07-05T04:19:51;20.60;99.90
41547;DHT22;27271;45.412;10.852;2022-07-05T04:23:17;20.60;99.90
41547;DHT22;27271;45.412;10.852;2022-07-05T04:26:54;20.70;99.90
41547;DHT22;27271;45.412;10.852;2022-07-05T04:30:41;20.80;99.90
41547;DHT22;27271;45.412;10.852;2022-07-05T04:34:15;20.80;99.90
41547;DHT22;27271;45.412;10.852;2022-07-05T04:37:49;20.90;99.90
41547;DHT22;27271;45.412;10.852;2022-07-05T04:41:14;20.90;99.90
41547;DHT22;27271;45.412;10.852;2022-07-05T04:44:42;20.90;99.90
41547;DHT22;27271;45.412;10.852;2022-07-05T04:48:07;20.80;99.90
41547;DHT22;27271;45.412;10.852;2022-07-05T04:51:34;20.80;99.90
41547;DHT22;27271;45.412;10.852;2022-07-05T04:54:57;20.90;99.90
41547;DHT22;27271;45.412;10.852;2022-07-05T04:58:25;21.00;99.90
41547;DHT22;27271;45.412;10.852;2022-07-05T05:01:57;21.10;99.90
41547;DHT22;27271;45.412;10.852;2022-07-05T05:05:23;21.20;99.90
41547;DHT22;27271;45.412;10.852;2022-07-05T05:09:01;21.40;99.90
41547;DHT22;27271;45.412;10.852;2022-07-05T05:12:26;21.50;99.90
41547;DHT22;27271;45.412;10.852;2022-07-05T05:15:52;21.60;99.90
41547;DHT22;27271;45.412;10.852;2022-07-05T05:19:36;21.40;99.90
41547;DHT22;27271;45.412;10.852;2022-07-05T05:23:20;21.30;99.90
41547;DHT22;27271;45.412;10.852;2022-07-05T05:26:59;21.60;99.90
41547;DHT22;27271;45.412;10.852;2022-07-05T05:30:31;22.60;99.90
41547;DHT22;27271;45.412;10.852;2022-07-05T05:33:55;25.10;99.90
41547;DHT22;27271;45.412;10.852;2022-07-05T05:37:25;27.60;99.90
41547;DHT22;27271;45.412;10.852;2022-07-05T05:40:51;29.50;95.90
41547;DHT22;27271;45.412;10.852;2022-07-05T05:44:19;31.00;92.70
41547;DHT22;27271;45.412;10.852;2022-07-05T05:47:56;32.20;89.80
41547;DHT22;27271;45.412;10.852;2022-07-05T05:51:21;33.30;81.10
41547;DHT22;27271;45.412;10.852;2022-07-05T05:54:49;34.20;78.70
41547;DHT22;27271;45.412;10.852;2022-07-05T05:58:24;34.90;76.10
41547;DHT22;27271;45.412;10.852;2022-07-05T06:01:58;34.90;72.70
41547;DHT22;27271;45.412;10.852;2022-07-05T06:05:24;35.00;69.30
41547;DHT22;27271;45.412;10.852;2022-07-05T06:08:48;34.90;71.40
41547;DHT22;27271;45.412;10.852;2022-07-05T06:12:20;35.30;67.90
41547;DHT22;27271;45.412;10.852;2022-07-05T06:15:53;35.50;66.90
41547;DHT22;27271;45.412;10.852;2022-07-05T06:19:17;35.40;66.40
41547;DHT22;27271;45.412;10.852;2022-07-05T06:22:41;34.70;66.50
41547;DHT22;27271;45.412;10.852;2022-07-05T06:26:05;33.70;66.60
41547;DHT22;27271;45.412;10.852;2022-07-05T06:29:39;33.10;70.30
41547;DHT22;27271;45.412;10.852;2022-07-05T06:33:06;33.90;68.00
41547;DHT22;27271;45.412;10.852;2022-07-05T06:36:31;34.90;68.50
41547;DHT22;27271;45.412;10.852;2022-07-05T06:39:55;35.40;64.70
41547;DHT22;27271;45.412;10.852;2022-07-05T06:43:22;36.20;64.10
41547;DHT22;27271;45.412;10.852;2022-07-05T06:46:55;35.50;64.00
41547;DHT22;27271;45.412;10.852;2022-07-05T06:50:24;36.10;62.70
41547;DHT22;27271;45.412;10.852;2022-07-05T06:53:48;35.80;60.20
41547;DHT22;27271;45.412;10.852;2022-07-05T06:57:41;35.50;61.30
41547;DHT22;27271;45.412;10.852;2022-07-05T07:01:28;36.50;61.00
41547;DHT22;27271;45.412;10.852;2022-07-05T07:05:02;36.70;58.30
41547;DHT22;27271;45.412;10.852;2022-07-05T07:08:34;36.60;57.40
41547;DHT22;27271;45.412;10.852;2022-07-05T07:12:16;36.20;58.60
41547;DHT22;27271;45.412;10.852;2022-07-05T07:15:39;36.40;57.00
41547;DHT22;27271;45.412;10.852;2022-07-05T07:19:10;36.90;57.60
41547;DHT22;27271;45.412;10.852;2022-07-05T07:22:46;36.70;55.50
41547;DHT22;27271;45.412;10.852;2022-07-05T07:26:12;37.00;55.50
41547;DHT22;27271;45.412;10.852;2022-07-05T07:29:52;37.90;53.70
41547;DHT22;27271;45.412;10.852;2022-07-05T07:33:20;37.90;54.20
41547;DHT22;27271;45.412;10.852;2022-07-05T07:37:13;37.70;57.70
41547;DHT22;27271;45.412;10.852;2022-07-05T07:40:39;37.00;56.30
41547;DHT22;27271;45.412;10.852;2022-07-05T07:44:05;37.60;54.50
41547;DHT22;27271;45.412;10.852;2022-07-05T07:47:27;38.30;52.50
41547;DHT22;27271;45.412;10.852;2022-07-05T07:50:50;36.70;55.00
41547;DHT22;27271;45.412;10.852;2022-07-05T07:54:17;37.20;53.90
41547;DHT22;27271;45.412;10.852;2022-07-05T07:57:40;38.70;52.30
41547;DHT22;27271;45.412;10.852;2022-07-05T08:01:06;40.10;49.60
41547;DHT22;27271;45.412;10.852;2022-07-05T08:04:47;40.30;49.50
41547;DHT22;27271;45.412;10.852;2022-07-05T08:08:24;40.70;48.30
41547;DHT22;27271;45.412;10.852;2022-07-05T08:12:03;40.00;49.90
41547;DHT22;27271;45.412;10.852;2022-07-05T08:15:32;39.00;50.60
41547;DHT22;27271;45.412;10.852;2022-07-05T08:19:05;37.70;50.60
41547;DHT22;27271;45.412;10.852;2022-07-05T08:22:48;38.50;55.90
41547;DHT22;27271;45.412;10.852;2022-07-05T08:26:16;39.40;51.70
41547;DHT22;27271;45.412;10.852;2022-07-05T08:29:41;38.20;52.70
41547;DHT22;27271;45.412;10.852;2022-07-05T08:33:05;38.50;54.30
41547;DHT22;27271;45.412;10.852;2022-07-05T08:36:29;37.50;56.00
41547;DHT22;27271;45.412;10.852;2022-07-05T08:39:53;38.10;54.40
41547;DHT22;27271;45.412;10.852;2022-07-05T08:43:25;38.10;52.90
41547;DHT22;27271;45.412;10.852;2022-07-05T08:46:50;39.00;52.10
41547;DHT22;27271;45.412;10.852;2022-07-05T08:50:16;39.40;53.20
41547;DHT22;27271;45.412;10.852;2022-07-05T08:53:46;39.90;50.20
41547;DHT22;27271;45.412;10.852;2022-07-05T08:57:12;40.30;50.90
41547;DHT22;27271;45.412;10.852;2022-07-05T09:00:38;39.00;50.70
41547;DHT22;27271;45.412;10.852;2022-07-05T09:04:11;38.50;51.40
41547;DHT22;27271;45.412;10.852;2022-07-05T09:07:58;37.40;54.60
41547;DHT22;27271;45.412;10.852;2022-07-05T09:11:35;38.40;51.20
41547;DHT22;27271;45.412;10.852;2022-07-05T09:14:58;37.50;51.80
41547;DHT22;27271;45.412;10.852;2022-07-05T09:18:39;38.00;52.10
41547;DHT22;27271;45.412;10.852;2022-07-05T09:22:13;38.30;53.80
41547;DHT22;27271;45.412;10.852;2022-07-05T09:25:43;39.50;51.00
41547;DHT22;27271;45.412;10.852;2022-07-05T09:29:08;37.80;53.30
41547;DHT22;27271;45.412;10.852;2022-07-05T09:37:02;38.70;51.00
41547;DHT22;27271;45.412;10.852;2022-07-05T09:40:26;38.40;52.10
41547;DHT22;27271;45.412;10.852;2022-07-05T09:43:53;39.10;49.60
41547;DHT22;27271;45.412;10.852;2022-07-05T09:47:20;38.40;52.30
41547;DHT22;27271;45.412;10.852;2022-07-05T09:50:48;39.40;48.60
41547;DHT22;27271;45.412;10.852;2022-07-05T09:54:32;38.70;49.80
41547;DHT22;27271;45.412;10.852;2022-07-05T09:57:59;39.20;49.00
41547;DHT22;27271;45.412;10.852;2022-07-05T10:01:30;39.50;50.80
41547;DHT22;27271;45.412;10.852;2022-07-05T10:05:23;38.60;49.50
41547;DHT22;27271;45.412;10.852;2022-07-05T10:08:48;38.50;49.10
41547;DHT22;27271;45.412;10.852;2022-07-05T10:12:13;38.40;48.10
41547;DHT22;27271;45.412;10.852;2022-07-05T10:15:42;38.20;49.40
41547;DHT22;27271;45.412;10.852;2022-07-05T10:19:18;38.10;50.30
41547;DHT22;27271;45.412;10.852;2022-07-05T10:22:49;37.40;49.20
41547;DHT22;27271;45.412;10.852;2022-07-05T10:26:14;38.10;50.20
41547;DHT22;27271;45.412;10.852;2022-07-05T10:29:38;38.20;50.70
41547;DHT22;27271;45.412;10.852;2022-07-05T10:33:08;38.00;51.20
41547;DHT22;27271;45.412;10.852;2022-07-05T10:36:38;36.60;50.20
41547;DHT22;27271;45.412;10.852;2022-07-05T10:40:05;36.40;52.30
41547;DHT22;27271;45.412;10.852;2022-07-05T10:43:34;37.10;52.20
41547;DHT22;27271;45.412;10.852;2022-07-05T10:47:10;37.70;49.80
41547;DHT22;27271;45.412;10.852;2022-07-05T10:50:53;37.00;50.50
41547;DHT22;27271;45.412;10.852;2022-07-05T10:54:39;37.20;52.00
41547;DHT22;27271;45.412;10.852;2022-07-05T11:01:49;37.30;50.50
41547;DHT22;27271;45.412;10.852;2022-07-05T11:05:22;36.80;49.90
41547;DHT22;27271;45.412;10.852;2022-07-05T11:12:56;36.00;53.30
41547;DHT22;27271;45.412;10.852;2022-07-05T11:16:35;36.50;52.40
41547;DHT22;27271;45.412;10.852;2022-07-05T11:20:25;36.60;50.90
41547;DHT22;27271;45.412;10.852;2022-07-05T11:23:49;37.00;49.90
41547;DHT22;27271;45.412;10.852;2022-07-05T11:27:21;36.30;50.60
41547;DHT22;27271;45.412;10.852;2022-07-05T11:30:55;36.40;52.00
41547;DHT22;27271;45.412;10.852;2022-07-05T11:34:47;36.80;52.30
41547;DHT22;27271;45.412;10.852;2022-07-05T11:38:10;37.10;49.80
41547;DHT22;27271;45.412;10.852;2022-07-05T11:41:53;37.20;49.40
41547;DHT22;27271;45.412;10.852;2022-07-05T11:45:36;36.30;53.60
41547;DHT22;27271;45.412;10.852;2022-07-05T11:49:11;36.70;51.50
41547;DHT22;27271;45.412;10.852;2022-07-05T11:52:38;36.60;51.20
41547;DHT22;27271;45.412;10.852;2022-07-05T11:56:18;36.70;50.30
41547;DHT22;27271;45.412;10.852;2022-07-05T11:59:56;36.60;50.20
41547;DHT22;27271;45.412;10.852;2022-07-05T12:03:32;36.60;49.60
41547;DHT22;27271;45.412;10.852;2022-07-05T12:06:59;36.40;53.90
41547;DHT22;27271;45.412;10.852;2022-07-05T12:10:28;36.10;52.20
41547;DHT22;27271;45.412;10.852;2022-07-05T12:14:34;35.80;50.50
41547;DHT22;27271;45.412;10.852;2022-07-05T12:18:12;35.40;50.80
41547;DHT22;27271;45.412;10.852;2022-07-05T12:21:38;35.10;51.90
41547;DHT22;27271;45.412;10.852;2022-07-05T12:25:05;35.00;53.10
41547;DHT22;27271;45.412;10.852;2022-07-05T12:28:33;35.30;52.40
41547;DHT22;27271;45.412;10.852;2022-07-05T12:32:08;35.00;53.20
41547;DHT22;27271;45.412;10.852;2022-07-05T12:35:45;35.40;54.70
41547;DHT22;27271;45.412;10.852;2022-07-05T12:39:42;35.70;52.30
41547;DHT22;27271;45.412;10.852;2022-07-05T12:43:25;35.70;53.60
41547;DHT22;27271;45.412;10.852;2022-07-05T12:47:06;35.90;54.20
41547;DHT22;27271;45.412;10.852;2022-07-05T12:50:51;35.50;56.30
41547;DHT22;27271;45.412;10.852;2022-07-05T12:54:38;34.70;54.40
41547;DHT22;27271;45.412;10.852;2022-07-05T12:58:28;34.80;56.90
41547;DHT22;27271;45.412;10.852;2022-07-05T13:01:55;35.10;54.60
41547;DHT22;27271;45.412;10.852;2022-07-05T13:05:22;35.10;55.40
41547;DHT22;27271;45.412;10.852;2022-07-05T13:08:56;35.60;54.20
41547;DHT22;27271;45.412;10.852;2022-07-05T13:12:20;35.40;55.20
41547;DHT22;27271;45.412;10.852;2022-07-05T13:15:48;35.80;53.30
41547;DHT22;27271;45.412;10.852;2022-07-05T13:19:18;36.30;53.90
41547;DHT22;27271;45.412;10.852;2022-07-05T13:22:42;36.40;52.50
41547;DHT22;27271;45.412;10.852;2022-07-05T13:26:07;36.30;52.20
41547;DHT22;27271;45.412;10.852;2022-07-05T13:29:35;35.90;53.10
41547;DHT22;27271;45.412;10.852;2022-07-05T13:32:58;35.40;53.10
41547;DHT22;27271;45.412;10.852;2022-07-05T13:36:25;35.60;53.50
41547;DHT22;27271;45.412;10.852;2022-07-05T13:39:48;35.60;54.70
41547;DHT22;27271;45.412;10.852;2022-07-05T13:43:14;35.60;54.70
41547;DHT22;27271;45.412;10.852;2022-07-05T13:46:39;35.70;54.40
41547;DHT22;27271;45.412;10.852;2022-07-05T13:50:10;35.30;53.80
41547;DHT22;27271;45.412;10.852;2022-07-05T13:53:50;35.20;53.40
41547;DHT22;27271;45.412;10.852;2022-07-05T13:57:19;35.00;55.30
41547;DHT22;27271;45.412;10.852;2022-07-05T14:00:42;35.50;52.80
41547;DHT22;27271;45.412;10.852;2022-07-05T14:04:20;35.10;53.10
41547;DHT22;27271;45.412;10.852;2022-07-05T14:07:47;34.90;55.30
41547;DHT22;27271;45.412;10.852;2022-07-05T14:11:30;34.50;54.30
41547;DHT22;27271;45.412;10.852;2022-07-05T14:14:59;34.90;55.30
41547;DHT22;27271;45.412;10.852;2022-07-05T14:18:35;35.00;53.70
41547;DHT22;27271;45.412;10.852;2022-07-05T14:22:03;35.40;54.50
41547;DHT22;27271;45.412;10.852;2022-07-05T14:25:36;35.70;53.60
41547;DHT22;27271;45.412;10.852;2022-07-05T14:29:11;35.60;52.70
41547;DHT22;27271;45.412;10.852;2022-07-05T14:32:42;35.30;52.60
41547;DHT22;27271;45.412;10.852;2022-07-05T14:36:10;34.90;55.60
41547;DHT22;27271;45.412;10.852;2022-07-05T14:39:40;34.90;54.00
41547;DHT22;27271;45.412;10.852;2022-07-05T14:43:09;35.60;53.20
41547;DHT22;27271;45.412;10.852;2022-07-05T14:46:38;35.90;52.40
41547;DHT22;27271;45.412;10.852;2022-07-05T14:50:02;36.10;50.50
41547;DHT22;27271;45.412;10.852;2022-07-05T14:53:27;35.90;52.70
41547;DHT22;27271;45.412;10.852;2022-07-05T14:56:54;36.10;51.40
41547;DHT22;27271;45.412;10.852;2022-07-05T15:00:21;36.50;50.70
41547;DHT22;27271;45.412;10.852;2022-07-05T15:04:09;36.80;48.70
41547;DHT22;27271;45.412;10.852;2022-07-05T15:07:32;36.80;50.70
41547;DHT22;27271;45.412;10.852;2022-07-05T15:10:59;36.10;51.20
41547;DHT22;27271;45.412;10.852;2022-07-05T15:14:25;36.20;51.10
41547;DHT22;27271;45.412;10.852;2022-07-05T15:21:35;36.90;49.30
41547;DHT22;27271;45.412;10.852;2022-07-05T15:24:59;36.60;48.20
41547;DHT22;27271;45.412;10.852;2022-07-05T15:28:23;36.60;48.50
41547;DHT22;27271;45.412;10.852;2022-07-05T15:31:47;36.80;48.30
41547;DHT22;27271;45.412;10.852;2022-07-05T15:35:14;36.80;48.00
41547;DHT22;27271;45.412;10.852;2022-07-05T15:38:46;36.70;47.40
41547;DHT22;27271;45.412;10.852;2022-07-05T15:42:14;36.60;48.50
41547;DHT22;27271;45.412;10.852;2022-07-05T15:45:55;36.90;48.40
41547;DHT22;27271;45.412;10.852;2022-07-05T15:49:24;36.90;47.70
41547;DHT22;27271;45.412;10.852;2022-07-05T15:52:51;37.00;48.20
41547;DHT22;27271;45.412;10.852;2022-07-05T15:56:17;37.10;48.60
41547;DHT22;27271;45.412;10.852;2022-07-05T15:59:53;37.00;47.30
41547;DHT22;27271;45.412;10.852;2022-07-05T16:03:28;37.00;47.40
41547;DHT22;27271;45.412;10.852;2022-07-05T16:06:51;37.00;47.20
41547;DHT22;27271;45.412;10.852;2022-07-05T16:10:18;36.80;48.40
41547;DHT22;27271;45.412;10.852;2022-07-05T16:14:00;36.90;47.90
41547;DHT22;27271;45.412;10.852;2022-07-05T16:17:24;36.80;49.00
41547;DHT22;27271;45.412;10.852;2022-07-05T16:20:52;36.70;48.20
41547;DHT22;27271;45.412;10.852;2022-07-05T16:24:32;36.40;48.60
41547;DHT22;27271;45.412;10.852;2022-07-05T16:28:12;36.60;48.40
41547;DHT22;27271;45.412;10.852;2022-07-05T16:31:39;36.60;47.60
41547;DHT22;27271;45.412;10.852;2022-07-05T16:35:03;36.70;48.40
41547;DHT22;27271;45.412;10.852;2022-07-05T16:38:41;36.60;47.70
41547;DHT22;27271;45.412;10.852;2022-07-05T16:42:05;36.60;48.70
41547;DHT22;27271;45.412;10.852;2022-07-05T16:45:33;36.00;48.30
41547;DHT22;27271;45.412;10.852;2022-07-05T16:49:02;35.90;50.00
41547;DHT22;27271;45.412;10.852;2022-07-05T16:52:29;35.60;48.70
41547;DHT22;27271;45.412;10.852;2022-07-05T16:56:05;35.60;48.90
41547;DHT22;27271;45.412;10.852;2022-07-05T16:59:50;35.60;49.50
41547;DHT22;27271;45.412;10.852;2022-07-05T17:03:15;35.80;50.10
41547;DHT22;27271;45.412;10.852;2022-07-05T17:06:43;35.60;49.60
41547;DHT22;27271;45.412;10.852;2022-07-05T17:10:14;35.20;49.60
41547;DHT22;27271;45.412;10.852;2022-07-05T17:13:58;34.70;50.70
41547;DHT22;27271;45.412;10.852;2022-07-05T17:17:22;34.80;51.30
41547;DHT22;27271;45.412;10.852;2022-07-05T17:20:51;34.90;52.00
41547;DHT22;27271;45.412;10.852;2022-07-05T17:24:30;34.80;53.40
41547;DHT22;27271;45.412;10.852;2022-07-05T17:28:14;34.80;53.80
41547;DHT22;27271;45.412;10.852;2022-07-05T17:31:42;35.00;52.60
41547;DHT22;27271;45.412;10.852;2022-07-05T17:35:17;35.00;52.30
41547;DHT22;27271;45.412;10.852;2022-07-05T17:38:48;35.00;52.10
41547;DHT22;27271;45.412;10.852;2022-07-05T17:42:21;34.80;53.80
41547;DHT22;27271;45.412;10.852;2022-07-05T17:45:47;34.60;54.80
41547;DHT22;27271;45.412;10.852;2022-07-05T17:49:16;34.00;55.00
41547;DHT22;27271;45.412;10.852;2022-07-05T17:52:42;33.50;57.10
41547;DHT22;27271;45.412;10.852;2022-07-05T17:56:06;32.80;57.20
41547;DHT22;27271;45.412;10.852;2022-07-05T17:59:35;32.60;58.10
41547;DHT22;27271;45.412;10.852;2022-07-05T18:03:14;32.50;58.60
41547;DHT22;27271;45.412;10.852;2022-07-05T18:06:49;32.30;59.30
41547;DHT22;27271;45.412;10.852;2022-07-05T18:10:23;32.10;61.90
41547;DHT22;27271;45.412;10.852;2022-07-05T18:13:55;31.80;62.60
41547;DHT22;27271;45.412;10.852;2022-07-05T18:17:20;31.60;63.40
41547;DHT22;27271;45.412;10.852;2022-07-05T18:20:56;31.40;64.70
41547;DHT22;27271;45.412;10.852;2022-07-05T18:24:28;31.30;64.90
41547;DHT22;27271;45.412;10.852;2022-07-05T18:27:57;31.10;65.80
41547;DHT22;27271;45.412;10.852;2022-07-05T18:31:22;30.90;66.40
41547;DHT22;27271;45.412;10.852;2022-07-05T18:34:47;30.80;65.80
41547;DHT22;27271;45.412;10.852;2022-07-05T18:38:29;30.70;66.00
41547;DHT22;27271;45.412;10.852;2022-07-05T18:42:22;30.60;67.00
41547;DHT22;27271;45.412;10.852;2022-07-05T18:45:47;30.50;65.90
41547;DHT22;27271;45.412;10.852;2022-07-05T18:49:14;30.30;66.40
41547;DHT22;27271;45.412;10.852;2022-07-05T18:52:42;30.30;66.10
41547;DHT22;27271;45.412;10.852;2022-07-05T18:56:13;30.20;67.20
41547;DHT22;27271;45.412;10.852;2022-07-05T18:59:51;30.20;66.80
41547;DHT22;27271;45.412;10.852;2022-07-05T19:03:15;30.00;68.00
41547;DHT22;27271;45.412;10.852;2022-07-05T19:06:40;29.90;68.20
41547;DHT22;27271;45.412;10.852;2022-07-05T19:10:28;29.80;68.60
41547;DHT22;27271;45.412;10.852;2022-07-05T19:14:11;29.60;68.50
41547;DHT22;27271;45.412;10.852;2022-07-05T19:17:37;29.40;69.10
41547;DHT22;27271;45.412;10.852;2022-07-05T19:21:04;29.30;69.80
41547;DHT22;27271;45.412;10.852;2022-07-05T19:24:37;29.20;70.80
41547;DHT22;27271;45.412;10.852;2022-07-05T19:28:06;29.00;70.90
41547;DHT22;27271;45.412;10.852;2022-07-05T19:31:37;29.10;71.80
41547;DHT22;27271;45.412;10.852;2022-07-05T19:35:09;29.00;72.20
41547;DHT22;27271;45.412;10.852;2022-07-05T19:38:33;28.90;73.20
41547;DHT22;27271;45.412;10.852;2022-07-05T19:41:56;28.50;75.20
41547;DHT22;27271;45.412;10.852;2022-07-05T19:45:31;28.40;73.40
41547;DHT22;27271;45.412;10.852;2022-07-05T19:53:03;28.50;69.00
41547;DHT22;27271;45.412;10.852;2022-07-05T19:56:33;28.70;67.70
41547;DHT22;27271;45.412;10.852;2022-07-05T20:00:00;28.60;67.00
41547;DHT22;27271;45.412;10.852;2022-07-05T20:03:25;28.60;66.90
41547;DHT22;27271;45.412;10.852;2022-07-05T20:06:49;28.50;66.30
41547;DHT22;27271;45.412;10.852;2022-07-05T20:10:16;28.40;66.80
41547;DHT22;27271;45.412;10.852;2022-07-05T20:13:46;28.30;67.20
41547;DHT22;27271;45.412;10.852;2022-07-05T20:17:24;28.20;66.90
41547;DHT22;27271;45.412;10.852;2022-07-05T20:20:50;28.10;66.90
41547;DHT22;27271;45.412;10.852;2022-07-05T20:24:14;28.10;68.00
41547;DHT22;27271;45.412;10.852;2022-07-05T20:27:40;28.10;67.20
41547;DHT22;27271;45.412;10.852;2022-07-05T20:31:06;28.00;67.30
41547;DHT22;27271;45.412;10.852;2022-07-05T20:34:35;27.90;67.80
41547;DHT22;27271;45.412;10.852;2022-07-05T20:38:02;27.90;67.30
41547;DHT22;27271;45.412;10.852;2022-07-05T20:41:27;27.90;67.40
41547;DHT22;27271;45.412;10.852;2022-07-05T20:44:51;27.80;67.40
41547;DHT22;27271;45.412;10.852;2022-07-05T20:48:26;27.70;68.60
41547;DHT22;27271;45.412;10.852;2022-07-05T20:51:54;27.60;68.30
41547;DHT22;27271;45.412;10.852;2022-07-05T20:55:17;27.50;69.10
41547;DHT22;27271;45.412;10.852;2022-07-05T20:58:41;27.30;68.90
41547;DHT22;27271;45.412;10.852;2022-07-05T21:02:04;27.30;69.60
41547;DHT22;27271;45.412;10.852;2022-07-05T21:05:27;27.20;69.90
41547;DHT22;27271;45.412;10.852;2022-07-05T21:08:50;27.00;69.90
41547;DHT22;27271;45.412;10.852;2022-07-05T21:12:13;27.00;70.00
41547;DHT22;27271;45.412;10.852;2022-07-05T21:15:40;27.00;69.80
41547;DHT22;27271;45.412;10.852;2022-07-05T21:19:06;27.00;70.40
41547;DHT22;27271;45.412;10.852;2022-07-05T21:22:33;26.80;70.80
41547;DHT22;27271;45.412;10.852;2022-07-05T21:26:05;26.70;71.40
41547;DHT22;27271;45.412;10.852;2022-07-05T21:29:28;26.60;72.00
41547;DHT22;27271;45.412;10.852;2022-07-05T21:32:56;26.50;72.10
41547;DHT22;27271;45.412;10.852;2022-07-05T21:36:19;26.50;72.30
41547;DHT22;27271;45.412;10.852;2022-07-05T21:39:42;26.40;72.60
41547;DHT22;27271;45.412;10.852;2022-07-05T21:43:06;26.30;72.50
41547;DHT22;27271;45.412;10.852;2022-07-05T21:46:30;26.30;73.00
41547;DHT22;27271;45.412;10.852;2022-07-05T21:49:56;26.10;73.50
41547;DHT22;27271;45.412;10.852;2022-07-05T21:53:22;26.10;74.50
41547;DHT22;27271;45.412;10.852;2022-07-05T21:56:49;26.00;73.80
41547;DHT22;27271;45.412;10.852;2022-07-05T22:00:30;26.00;73.70
41547;DHT22;27271;45.412;10.852;2022-07-05T22:04:12;26.00;74.30
41547;DHT22;27271;45.412;10.852;2022-07-05T22:07:48;25.90;74.70